sensor_id;sensor_type;location;lat;lon;timestamp;temperature;humidity
11617;DHT22;5864;52.998;9.068;2023-05-14T00:01:18;13.20;1.00
11617;DHT22;5864;52.998;9.068;2023-05-14T00:04:04;14.60;1.00
11617;DHT22;5864;52.998;9.068;2023-05-14T00:06:50;14.60;1.00
11617;DHT22;5864;52.998;9.068;2023-05-14T00:09:37;14.60;1.00
11617;DHT22;5864;52.998;9.068;2023-05-14T00:12:23;14.50;1.00
11617;DHT22;5864;52.998;9.068;2023-05-14T00:15:10;14.50;1.00
11617;DHT22;5864;52.998;9.068;2023-05-14T00:17:56;14.40;1.00
11617;DHT22;5864;52.998;9.068;2023-05-14T00:20:42;14.50;1.00
11617;DHT22;5864;52.998;9.068;2023-05-14T00:23:28;14.50;1.00
11617;DHT22;5864;52.998;9.068;2023-05-14T00:26:15;14.50;1.00
11617;DHT22;5864;52.998;9.068;2023-05-14T00:29:01;14.50;1.00
11617;DHT22;5864;52.998;9.068;2023-05-14T00:31:47;14.60;1.00
11617;DHT22;5864;52.998;9.068;2023-05-14T00:34:33;14.40;1.00
11617;DHT22;5864;52.998;9.068;2023-05-14T00:37:19;14.30;1.00
11617;DHT22;5864;52.998;9.068;2023-05-14T00:40:06;14.40;1.00
11617;DHT22;5864;52.998;9.068;2023-05-14T00:42:56;14.40;1.00
11617;DHT22;5864;52.998;9.068;2023-05-14T00:45:41;14.50;1.00
11617;DHT22;5864;52.998;9.068;2023-05-14T00:48:27;14.40;1.00
11617;DHT22;5864;52.998;9.068;2023-05-14T00:51:13;14.40;1.00
11617;DHT22;5864;52.998;9.068;2023-05-14T00:53:59;14.40;1.00
11617;DHT22;5864;52.998;9.068;2023-05-14T00:56:46;14.40;1.00
11617;DHT22;5864;52.998;9.068;2023-05-14T00:59:32;14.40;1.00
11617;DHT22;5864;52.998;9.068;2023-05-14T01:02:19;14.40;1.00
11617;DHT22;5864;52.998;9.068;2023-05-14T01:05:06;14.50;1.00
11617;DHT22;5864;52.998;9.068;2023-05-14T01:08:01;14.40;2.00
11617;DHT22;5864;52.998;9.068;2023-05-14T01:10:51;14.50;1.50
11617;DHT22;5864;52.998;9.068;2023-05-14T01:13:43;14.50;2.40
11617;DHT22;5864;52.998;9.068;2023-05-14T01:16:33;14.50;3.00
11617;DHT22;5864;52.998;9.068;2023-05-14T01:19:25;14.50;3.20
11617;DHT22;5864;52.998;9.068;2023-05-14T01:22:13;14.40;3.70
11617;DHT22;5864;52.998;9.068;2023-05-14T01:24:59;14.50;4.40
11617;DHT22;5864;52.998;9.068;2023-05-14T01:27:51;14.60;5.40
11617;DHT22;5864;52.998;9.068;2023-05-14T01:30:41;14.60;6.80
11617;DHT22;5864;52.998;9.068;2023-05-14T01:33:28;14.60;6.50
11617;DHT22;5864;52.998;9.068;2023-05-14T01:36:18;14.60;6.40
11617;DHT22;5864;52.998;9.068;2023-05-14T01:39:05;14.60;8.20
11617;DHT22;5864;52.998;9.068;2023-05-14T01:41:53;14.60;10.00
11617;DHT22;5864;52.998;9.068;2023-05-14T01:44:39;14.50;9.90
11617;DHT22;5864;52.998;9.068;2023-05-14T01:47:25;14.50;11.90
11617;DHT22;5864;52.998;9.068;2023-05-14T01:50:11;14.50;12.60
11617;DHT22;5864;52.998;9.068;2023-05-14T01:52:56;14.40;14.40
11617;DHT22;5864;52.998;9.068;2023-05-14T01:55:43;14.30;17.40
11617;DHT22;5864;52.998;9.068;2023-05-14T01:58:29;14.20;18.40
11617;DHT22;5864;52.998;9.068;2023-05-14T02:01:15;14.10;21.40
11617;DHT22;5864;52.998;9.068;2023-05-14T02:04:00;14.00;21.50
11617;DHT22;5864;52.998;9.068;2023-05-14T02:06:46;14.00;19.90
11617;DHT22;5864;52.998;9.068;2023-05-14T02:09:32;13.90;19.70
11617;DHT22;5864;52.998;9.068;2023-05-14T02:12:19;13.90;17.30
11617;DHT22;5864;52.998;9.068;2023-05-14T02:15:08;13.90;18.50
11617;DHT22;5864;52.998;9.068;2023-05-14T02:17:54;13.90;21.10
11617;DHT22;5864;52.998;9.068;2023-05-14T02:20:39;13.80;22.00
11617;DHT22;5864;52.998;9.068;2023-05-14T02:23:25;13.70;22.60
11617;DHT22;5864;52.998;9.068;2023-05-14T02:26:11;13.80;23.70
11617;DHT22;5864;52.998;9.068;2023-05-14T02:28:58;13.70;24.00
11617;DHT22;5864;52.998;9.068;2023-05-14T02:31:44;13.60;22.80
11617;DHT22;5864;52.998;9.068;2023-05-14T02:34:29;13.60;23.60
11617;DHT22;5864;52.998;9.068;2023-05-14T02:37:16;13.60;24.20
11617;DHT22;5864;52.998;9.068;2023-05-14T02:40:03;15.20;25.90
11617;DHT22;5864;52.998;9.068;2023-05-14T02:42:48;13.50;24.70
11617;DHT22;5864;52.998;9.068;2023-05-14T02:45:35;13.50;26.40
11617;DHT22;5864;52.998;9.068;2023-05-14T02:48:20;13.40;28.90
11617;DHT22;5864;52.998;9.068;2023-05-14T02:51:06;13.40;28.90
11617;DHT22;5864;52.998;9.068;2023-05-14T02:53:52;13.40;31.30
11617;DHT22;5864;52.998;9.068;2023-05-14T02:56:37;13.30;34.20
11617;DHT22;5864;52.998;9.068;2023-05-14T02:59:23;13.20;37.00
11617;DHT22;5864;52.998;9.068;2023-05-14T03:02:10;13.10;37.70
11617;DHT22;5864;52.998;9.068;2023-05-14T03:04:56;13.20;40.70
11617;DHT22;5864;52.998;9.068;2023-05-14T03:07:42;13.10;43.40
11617;DHT22;5864;52.998;9.068;2023-05-14T03:10:27;13.20;42.40
11617;DHT22;5864;52.998;9.068;2023-05-14T03:13:13;13.40;43.90
11617;DHT22;5864;52.998;9.068;2023-05-14T03:16:01;13.20;45.80
11617;DHT22;5864;52.998;9.068;2023-05-14T03:18:48;13.10;46.40
11617;DHT22;5864;52.998;9.068;2023-05-14T03:21:34;13.10;48.60
11617;DHT22;5864;52.998;9.068;2023-05-14T03:24:19;13.20;47.20
11617;DHT22;5864;52.998;9.068;2023-05-14T03:27:05;13.10;50.40
11617;DHT22;5864;52.998;9.068;2023-05-14T03:29:51;13.00;54.60
11617;DHT22;5864;52.998;9.068;2023-05-14T03:32:37;12.80;60.80
11617;DHT22;5864;52.998;9.068;2023-05-14T03:35:25;12.90;58.50
11617;DHT22;5864;52.998;9.068;2023-05-14T03:38:10;12.90;62.00
11617;DHT22;5864;52.998;9.068;2023-05-14T03:40:56;12.90;64.00
11617;DHT22;5864;52.998;9.068;2023-05-14T03:43:42;12.80;67.90
11617;DHT22;5864;52.998;9.068;2023-05-14T03:46:27;12.80;75.30
11617;DHT22;5864;52.998;9.068;2023-05-14T03:49:13;12.80;78.30
11617;DHT22;5864;52.998;9.068;2023-05-14T03:52:00;12.80;75.70
11617;DHT22;5864;52.998;9.068;2023-05-14T03:54:45;13.00;74.30
11617;DHT22;5864;52.998;9.068;2023-05-14T03:57:31;13.00;68.20
11617;DHT22;5864;52.998;9.068;2023-05-14T04:00:17;12.90;76.20
11617;DHT22;5864;52.998;9.068;2023-05-14T04:03:03;13.00;75.90
11617;DHT22;5864;52.998;9.068;2023-05-14T04:05:49;13.00;75.60
11617;DHT22;5864;52.998;9.068;2023-05-14T04:08:36;13.10;74.90
11617;DHT22;5864;52.998;9.068;2023-05-14T04:11:22;13.30;76.90
11617;DHT22;5864;52.998;9.068;2023-05-14T04:14:08;13.20;75.40
11617;DHT22;5864;52.998;9.068;2023-05-14T04:16:54;13.20;76.10
11617;DHT22;5864;52.998;9.068;2023-05-14T04:19:39;13.30;79.10
11617;DHT22;5864;52.998;9.068;2023-05-14T04:22:25;13.40;74.40
11617;DHT22;5864;52.998;9.068;2023-05-14T04:25:12;13.30;74.40
11617;DHT22;5864;52.998;9.068;2023-05-14T04:27:58;13.50;76.20
11617;DHT22;5864;52.998;9.068;2023-05-14T04:30:44;13.60;71.20
11617;DHT22;5864;52.998;9.068;2023-05-14T04:33:30;13.50;72.40
11617;DHT22;5864;52.998;9.068;2023-05-14T04:36:15;13.50;77.90
11617;DHT22;5864;52.998;9.068;2023-05-14T04:39:01;13.60;76.00
11617;DHT22;5864;52.998;9.068;2023-05-14T04:41:48;13.70;81.50
11617;DHT22;5864;52.998;9.068;2023-05-14T04:44:34;13.70;76.20
11617;DHT22;5864;52.998;9.068;2023-05-14T04:47:20;13.90;66.80
11617;DHT22;5864;52.998;9.068;2023-05-14T04:50:07;13.90;71.00
11617;DHT22;5864;52.998;9.068;2023-05-14T04:52:52;13.90;76.80
11617;DHT22;5864;52.998;9.068;2023-05-14T04:55:39;13.90;76.80
11617;DHT22;5864;52.998;9.068;2023-05-14T04:58:26;13.90;74.00
11617;DHT22;5864;52.998;9.068;2023-05-14T05:01:12;14.20;70.40
11617;DHT22;5864;52.998;9.068;2023-05-14T05:03:57;14.20;66.50
11617;DHT22;5864;52.998;9.068;2023-05-14T05:06:43;14.30;66.50
11617;DHT22;5864;52.998;9.068;2023-05-14T05:09:28;14.20;67.00
11617;DHT22;5864;52.998;9.068;2023-05-14T05:12:14;14.30;77.80
11617;DHT22;5864;52.998;9.068;2023-05-14T05:15:01;14.30;81.40
11617;DHT22;5864;52.998;9.068;2023-05-14T05:17:47;14.40;74.00
11617;DHT22;5864;52.998;9.068;2023-05-14T05:20:33;14.50;75.10
11617;DHT22;5864;52.998;9.068;2023-05-14T05:23:19;14.80;72.20
11617;DHT22;5864;52.998;9.068;2023-05-14T05:26:04;14.80;67.40
11617;DHT22;5864;52.998;9.068;2023-05-14T05:28:50;14.90;72.60
11617;DHT22;5864;52.998;9.068;2023-05-14T05:31:38;15.10;67.10
11617;DHT22;5864;52.998;9.068;2023-05-14T05:34:23;15.30;70.70
11617;DHT22;5864;52.998;9.068;2023-05-14T05:37:09;15.50;70.50
11617;DHT22;5864;52.998;9.068;2023-05-14T05:39:57;15.50;62.90
11617;DHT22;5864;52.998;9.068;2023-05-14T05:42:43;15.70;73.90
11617;DHT22;5864;52.998;9.068;2023-05-14T05:45:29;15.70;58.80
11617;DHT22;5864;52.998;9.068;2023-05-14T05:48:16;15.80;57.30
11617;DHT22;5864;52.998;9.068;2023-05-14T05:51:02;15.80;65.50
11617;DHT22;5864;52.998;9.068;2023-05-14T05:53:48;15.90;64.70
11617;DHT22;5864;52.998;9.068;2023-05-14T05:56:34;16.10;60.80
11617;DHT22;5864;52.998;9.068;2023-05-14T05:59:20;16.10;56.10
11617;DHT22;5864;52.998;9.068;2023-05-14T06:02:06;16.40;54.50
11617;DHT22;5864;52.998;9.068;2023-05-14T06:04:53;16.60;50.10
11617;DHT22;5864;52.998;9.068;2023-05-14T06:07:39;16.70;46.50
11617;DHT22;5864;52.998;9.068;2023-05-14T06:10:25;16.60;49.20
11617;DHT22;5864;52.998;9.068;2023-05-14T06:13:11;16.50;55.50
11617;DHT22;5864;52.998;9.068;2023-05-14T06:15:57;16.70;56.90
11617;DHT22;5864;52.998;9.068;2023-05-14T06:18:42;16.70;65.30
11617;DHT22;5864;52.998;9.068;2023-05-14T06:21:29;17.00;51.30
11617;DHT22;5864;52.998;9.068;2023-05-14T06:24:15;17.40;44.70
11617;DHT22;5864;52.998;9.068;2023-05-14T06:27:03;17.60;41.10
11617;DHT22;5864;52.998;9.068;2023-05-14T06:29:48;17.90;39.30
11617;DHT22;5864;52.998;9.068;2023-05-14T06:32:34;17.90;39.90
11617;DHT22;5864;52.998;9.068;2023-05-14T06:35:22;18.10;33.20
11617;DHT22;5864;52.998;9.068;2023-05-14T06:38:09;18.20;29.70
11617;DHT22;5864;52.998;9.068;2023-05-14T06:40:54;18.40;35.20
11617;DHT22;5864;52.998;9.068;2023-05-14T06:43:40;18.80;33.10
11617;DHT22;5864;52.998;9.068;2023-05-14T06:46:26;19.00;26.80
11617;DHT22;5864;52.998;9.068;2023-05-14T06:49:11;19.40;25.20
11617;DHT22;5864;52.998;9.068;2023-05-14T06:51:57;19.20;24.10
11617;DHT22;5864;52.998;9.068;2023-05-14T06:54:44;19.50;25.70
11617;DHT22;5864;52.998;9.068;2023-05-14T07:00:17;20.30;19.20
11617;DHT22;5864;52.998;9.068;2023-05-14T07:03:03;20.60;15.70
11617;DHT22;5864;52.998;9.068;2023-05-14T07:05:49;20.90;12.50
11617;DHT22;5864;52.998;9.068;2023-05-14T07:11:22;20.70;9.60
11617;DHT22;5864;52.998;9.068;2023-05-14T07:14:08;20.60;13.70
11617;DHT22;5864;52.998;9.068;2023-05-14T07:16:54;20.90;9.80
11617;DHT22;5864;52.998;9.068;2023-05-14T07:19:40;21.10;8.40
11617;DHT22;5864;52.998;9.068;2023-05-14T07:22:25;20.90;8.30
11617;DHT22;5864;52.998;9.068;2023-05-14T07:25:11;20.90;8.90
11617;DHT22;5864;52.998;9.068;2023-05-14T07:27:58;21.30;5.90
11617;DHT22;5864;52.998;9.068;2023-05-14T07:30:43;21.40;5.10
11617;DHT22;5864;52.998;9.068;2023-05-14T07:33:29;21.40;7.00
11617;DHT22;5864;52.998;9.068;2023-05-14T07:36:15;21.50;2.50
11617;DHT22;5864;52.998;9.068;2023-05-14T07:39:00;21.70;1.00
11617;DHT22;5864;52.998;9.068;2023-05-14T07:52:52;23.30;1.00
11617;DHT22;5864;52.998;9.068;2023-05-14T07:55:37;22.90;1.00
11617;DHT22;5864;52.998;9.068;2023-05-14T07:58:23;22.80;1.00
11617;DHT22;5864;52.998;9.068;2023-05-14T08:01:12;22.90;1.00
11617;DHT22;5864;52.998;9.068;2023-05-14T08:03:57;23.10;1.00
11617;DHT22;5864;52.998;9.068;2023-05-14T08:06:43;23.30;1.00
11617;DHT22;5864;52.998;9.068;2023-05-14T08:09:29;23.80;1.00
11617;DHT22;5864;52.998;9.068;2023-05-14T08:12:14;23.40;1.00
11617;DHT22;5864;52.998;9.068;2023-05-14T08:15:01;23.70;1.00
11617;DHT22;5864;52.998;9.068;2023-05-14T08:17:48;23.70;1.00
11617;DHT22;5864;52.998;9.068;2023-05-14T08:20:33;24.00;1.00
11617;DHT22;5864;52.998;9.068;2023-05-14T08:23:22;24.60;1.00
11617;DHT22;5864;52.998;9.068;2023-05-14T08:26:08;24.30;1.00
11617;DHT22;5864;52.998;9.068;2023-05-14T08:28:53;24.00;1.00
11617;DHT22;5864;52.998;9.068;2023-05-14T08:31:39;24.00;1.00
11617;DHT22;5864;52.998;9.068;2023-05-14T08:34:26;24.20;1.00
11617;DHT22;5864;52.998;9.068;2023-05-14T08:37:11;24.10;1.00
11617;DHT22;5864;52.998;9.068;2023-05-14T08:39:57;23.70;1.00
11617;DHT22;5864;52.998;9.068;2023-05-14T08:42:43;23.80;1.00
11617;DHT22;5864;52.998;9.068;2023-05-14T08:45:30;24.10;1.00
11617;DHT22;5864;52.998;9.068;2023-05-14T08:48:19;24.50;1.00
11617;DHT22;5864;52.998;9.068;2023-05-14T08:53:54;25.10;1.00
11617;DHT22;5864;52.998;9.068;2023-05-14T08:56:41;25.40;1.00
11617;DHT22;5864;52.998;9.068;2023-05-14T08:59:28;26.10;1.00
11617;DHT22;5864;52.998;9.068;2023-05-14T09:02:14;26.10;1.00
11617;DHT22;5864;52.998;9.068;2023-05-14T09:05:01;25.90;1.00
11617;DHT22;5864;52.998;9.068;2023-05-14T09:07:49;26.00;1.00
11617;DHT22;5864;52.998;9.068;2023-05-14T09:10:34;25.70;1.00
11617;DHT22;5864;52.998;9.068;2023-05-14T09:13:20;26.70;1.00
11617;DHT22;5864;52.998;9.068;2023-05-14T09:16:06;26.80;1.00
11617;DHT22;5864;52.998;9.068;2023-05-14T09:18:52;26.00;1.00
11617;DHT22;5864;52.998;9.068;2023-05-14T09:21:38;25.90;1.00
11617;DHT22;5864;52.998;9.068;2023-05-14T09:24:26;25.80;1.00
11617;DHT22;5864;52.998;9.068;2023-05-14T09:27:17;25.70;1.00
11617;DHT22;5864;52.998;9.068;2023-05-14T09:30:05;25.90;1.00
11617;DHT22;5864;52.998;9.068;2023-05-14T09:32:53;25.70;1.00
11617;DHT22;5864;52.998;9.068;2023-05-14T09:35:39;25.80;1.00
11617;DHT22;5864;52.998;9.068;2023-05-14T09:38:29;25.40;1.00
11617;DHT22;5864;52.998;9.068;2023-05-14T09:41:16;25.10;1.00
11617;DHT22;5864;52.998;9.068;2023-05-14T09:44:02;26.00;1.00
11617;DHT22;5864;52.998;9.068;2023-05-14T09:46:48;25.90;1.00
11617;DHT22;5864;52.998;9.068;2023-05-14T09:49:34;26.30;1.00
11617;DHT22;5864;52.998;9.068;2023-05-14T09:52:21;26.50;1.00
11617;DHT22;5864;52.998;9.068;2023-05-14T09:55:08;27.20;1.00
11617;DHT22;5864;52.998;9.068;2023-05-14T09:57:55;27.70;1.00
11617;DHT22;5864;52.998;9.068;2023-05-14T10:00:43;27.20;1.00
11617;DHT22;5864;52.998;9.068;2023-05-14T10:03:29;26.80;1.00
11617;DHT22;5864;52.998;9.068;2023-05-14T10:06:15;27.10;1.00
11617;DHT22;5864;52.998;9.068;2023-05-14T10:09:09;27.40;1.00
11617;DHT22;5864;52.998;9.068;2023-05-14T10:11:58;26.80;1.00
11617;DHT22;5864;52.998;9.068;2023-05-14T10:14:47;25.80;1.00
11617;DHT22;5864;52.998;9.068;2023-05-14T10:17:37;25.30;1.00
11617;DHT22;5864;52.998;9.068;2023-05-14T10:20:26;25.60;1.00
11617;DHT22;5864;52.998;9.068;2023-05-14T10:23:12;26.00;1.00
11617;DHT22;5864;52.998;9.068;2023-05-14T10:25:58;25.00;1.00
11617;DHT22;5864;52.998;9.068;2023-05-14T10:28:44;25.00;1.00
11617;DHT22;5864;52.998;9.068;2023-05-14T10:31:46;26.00;1.00
11617;DHT22;5864;52.998;9.068;2023-05-14T10:34:34;26.10;1.00
11617;DHT22;5864;52.998;9.068;2023-05-14T10:37:24;26.50;1.00
11617;DHT22;5864;52.998;9.068;2023-05-14T10:40:09;26.50;1.00
11617;DHT22;5864;52.998;9.068;2023-05-14T10:42:58;26.50;1.00
11617;DHT22;5864;52.998;9.068;2023-05-14T10:45:44;26.80;1.00
11617;DHT22;5864;52.998;9.068;2023-05-14T10:48:34;26.40;1.00
11617;DHT22;5864;52.998;9.068;2023-05-14T10:51:21;26.30;1.00
11617;DHT22;5864;52.998;9.068;2023-05-14T10:54:07;26.10;1.00
11617;DHT22;5864;52.998;9.068;2023-05-14T10:56:53;26.30;1.00
11617;DHT22;5864;52.998;9.068;2023-05-14T10:59:42;26.40;1.00
11617;DHT22;5864;52.998;9.068;2023-05-14T11:02:30;25.90;1.00
11617;DHT22;5864;52.998;9.068;2023-05-14T11:05:17;25.80;1.00
11617;DHT22;5864;52.998;9.068;2023-05-14T11:08:04;25.90;1.00
11617;DHT22;5864;52.998;9.068;2023-05-14T11:10:53;25.80;1.00
11617;DHT22;5864;52.998;9.068;2023-05-14T11:13:40;26.10;1.00
11617;DHT22;5864;52.998;9.068;2023-05-14T11:16:27;26.30;1.00
11617;DHT22;5864;52.998;9.068;2023-05-14T11:19:14;26.20;1.00
11617;DHT22;5864;52.998;9.068;2023-05-14T11:22:02;26.80;1.00
11617;DHT22;5864;52.998;9.068;2023-05-14T11:24:48;27.10;1.00
11617;DHT22;5864;52.998;9.068;2023-05-14T11:27:35;26.50;1.00
11617;DHT22;5864;52.998;9.068;2023-05-14T11:30:21;25.40;1.00
11617;DHT22;5864;52.998;9.068;2023-05-14T11:33:07;25.60;1.00
11617;DHT22;5864;52.998;9.068;2023-05-14T11:35:52;25.60;1.00
11617;DHT22;5864;52.998;9.068;2023-05-14T11:38:49;26.40;1.00
11617;DHT22;5864;52.998;9.068;2023-05-14T11:41:35;27.10;1.00
11617;DHT22;5864;52.998;9.068;2023-05-14T11:44:21;27.20;1.00
11617;DHT22;5864;52.998;9.068;2023-05-14T11:47:07;27.00;1.00
11617;DHT22;5864;52.998;9.068;2023-05-14T11:49:53;26.90;1.00
11617;DHT22;5864;52.998;9.068;2023-05-14T11:52:40;26.30;1.00
11617;DHT22;5864;52.998;9.068;2023-05-14T11:55:27;25.30;1.00
11617;DHT22;5864;52.998;9.068;2023-05-14T11:58:13;25.40;1.00
11617;DHT22;5864;52.998;9.068;2023-05-14T12:01:02;25.30;1.00
11617;DHT22;5864;52.998;9.068;2023-05-14T12:03:49;26.40;1.00
11617;DHT22;5864;52.998;9.068;2023-05-14T12:06:34;26.80;1.00
11617;DHT22;5864;52.998;9.068;2023-05-14T12:09:21;27.50;1.00
11617;DHT22;5864;52.998;9.068;2023-05-14T12:12:10;26.70;1.00
11617;DHT22;5864;52.998;9.068;2023-05-14T12:14:58;26.50;1.00
11617;DHT22;5864;52.998;9.068;2023-05-14T12:17:48;26.40;1.00
11617;DHT22;5864;52.998;9.068;2023-05-14T12:20:35;26.60;1.00
11617;DHT22;5864;52.998;9.068;2023-05-14T12:23:24;26.40;1.00
11617;DHT22;5864;52.998;9.068;2023-05-14T12:26:11;26.70;1.00
11617;DHT22;5864;52.998;9.068;2023-05-14T12:29:00;26.90;1.00
11617;DHT22;5864;52.998;9.068;2023-05-14T12:31:48;27.40;1.00
11617;DHT22;5864;52.998;9.068;2023-05-14T12:34:34;27.10;1.00
11617;DHT22;5864;52.998;9.068;2023-05-14T12:37:20;27.20;1.00
11617;DHT22;5864;52.998;9.068;2023-05-14T12:40:07;28.10;1.00
11617;DHT22;5864;52.998;9.068;2023-05-14T12:42:53;28.40;1.00
11617;DHT22;5864;52.998;9.068;2023-05-14T12:45:40;28.00;1.00
11617;DHT22;5864;52.998;9.068;2023-05-14T12:48:26;27.90;1.00
11617;DHT22;5864;52.998;9.068;2023-05-14T12:51:12;27.70;1.00
11617;DHT22;5864;52.998;9.068;2023-05-14T12:53:57;28.20;1.00
11617;DHT22;5864;52.998;9.068;2023-05-14T12:56:43;27.00;1.00
11617;DHT22;5864;52.998;9.068;2023-05-14T12:59:28;26.20;1.00
11617;DHT22;5864;52.998;9.068;2023-05-14T13:02:15;26.10;1.00
11617;DHT22;5864;52.998;9.068;2023-05-14T13:05:02;25.90;1.00
11617;DHT22;5864;52.998;9.068;2023-05-14T13:07:47;25.50;1.00
11617;DHT22;5864;52.998;9.068;2023-05-14T13:10:33;24.80;1.00
11617;DHT22;5864;52.998;9.068;2023-05-14T13:13:19;24.50;1.00
11617;DHT22;5864;52.998;9.068;2023-05-14T13:16:05;24.60;1.00
11617;DHT22;5864;52.998;9.068;2023-05-14T13:18:52;24.10;1.00
11617;DHT22;5864;52.998;9.068;2023-05-14T13:21:38;24.00;1.00
11617;DHT22;5864;52.998;9.068;2023-05-14T13:24:23;23.90;1.00
11617;DHT22;5864;52.998;9.068;2023-05-14T13:27:10;24.00;1.00
11617;DHT22;5864;52.998;9.068;2023-05-14T13:29:56;24.00;1.00
11617;DHT22;5864;52.998;9.068;2023-05-14T13:32:42;24.20;1.00
11617;DHT22;5864;52.998;9.068;2023-05-14T13:35:30;24.90;1.00
11617;DHT22;5864;52.998;9.068;2023-05-14T13:38:15;24.90;1.00
11617;DHT22;5864;52.998;9.068;2023-05-14T13:41:01;24.90;1.00
11617;DHT22;5864;52.998;9.068;2023-05-14T13:43:46;25.30;1.00
11617;DHT22;5864;52.998;9.068;2023-05-14T13:46:32;25.30;1.00
11617;DHT22;5864;52.998;9.068;2023-05-14T13:49:18;25.50;1.00
11617;DHT22;5864;52.998;9.068;2023-05-14T13:52:06;25.60;1.00
11617;DHT22;5864;52.998;9.068;2023-05-14T13:54:51;25.60;1.00
11617;DHT22;5864;52.998;9.068;2023-05-14T13:57:38;25.20;1.00
11617;DHT22;5864;52.998;9.068;2023-05-14T14:00:24;25.30;1.00
11617;DHT22;5864;52.998;9.068;2023-05-14T14:03:10;25.30;1.00
11617;DHT22;5864;52.998;9.068;2023-05-14T14:05:56;25.60;1.00
11617;DHT22;5864;52.998;9.068;2023-05-14T14:08:43;25.50;1.00
11617;DHT22;5864;52.998;9.068;2023-05-14T14:11:29;26.00;1.00
11617;DHT22;5864;52.998;9.068;2023-05-14T14:14:14;25.80;1.00
11617;DHT22;5864;52.998;9.068;2023-05-14T14:17:00;25.30;1.00
11617;DHT22;5864;52.998;9.068;2023-05-14T14:19:45;25.80;1.00
11617;DHT22;5864;52.998;9.068;2023-05-14T14:22:31;25.90;1.00
11617;DHT22;5864;52.998;9.068;2023-05-14T14:25:18;26.10;1.00
11617;DHT22;5864;52.998;9.068;2023-05-14T14:28:04;25.90;1.00
11617;DHT22;5864;52.998;9.068;2023-05-14T14:30:49;25.90;1.00
11617;DHT22;5864;52.998;9.068;2023-05-14T14:33:35;26.00;1.00
11617;DHT22;5864;52.998;9.068;2023-05-14T14:36:20;25.90;1.00
11617;DHT22;5864;52.998;9.068;2023-05-14T14:39:06;25.40;1.00
11617;DHT22;5864;52.998;9.068;2023-05-14T14:41:54;25.00;1.00
11617;DHT22;5864;52.998;9.068;2023-05-14T14:44:39;24.50;1.00
11617;DHT22;5864;52.998;9.068;2023-05-14T14:47:25;24.40;1.00
11617;DHT22;5864;52.998;9.068;2023-05-14T14:50:11;24.20;1.00
11617;DHT22;5864;52.998;9.068;2023-05-14T14:52:57;24.50;1.00
11617;DHT22;5864;52.998;9.068;2023-05-14T14:55:42;24.60;1.00
11617;DHT22;5864;52.998;9.068;2023-05-14T14:58:29;24.90;1.00
11617;DHT22;5864;52.998;9.068;2023-05-14T15:01:15;24.70;1.00
11617;DHT22;5864;52.998;9.068;2023-05-14T15:04:01;24.40;1.00
11617;DHT22;5864;52.998;9.068;2023-05-14T15:06:46;24.70;1.00
11617;DHT22;5864;52.998;9.068;2023-05-14T15:09:32;24.60;1.00
11617;DHT22;5864;52.998;9.068;2023-05-14T15:12:18;24.40;1.00
11617;DHT22;5864;52.998;9.068;2023-05-14T15:15:07;24.50;1.00
11617;DHT22;5864;52.998;9.068;2023-05-14T15:17:53;24.70;1.00
11617;DHT22;5864;52.998;9.068;2023-05-14T15:20:38;24.70;1.00
11617;DHT22;5864;52.998;9.068;2023-05-14T15:23:24;24.60;1.00
11617;DHT22;5864;52.998;9.068;2023-05-14T15:26:10;24.50;1.00
11617;DHT22;5864;52.998;9.068;2023-05-14T15:28:55;24.60;1.00
11617;DHT22;5864;52.998;9.068;2023-05-14T15:31:43;24.80;1.00
11617;DHT22;5864;52.998;9.068;2023-05-14T15:34:29;24.70;1.00
11617;DHT22;5864;52.998;9.068;2023-05-14T15:37:14;24.50;1.00
11617;DHT22;5864;52.998;9.068;2023-05-14T15:40:00;24.20;1.00
11617;DHT22;5864;52.998;9.068;2023-05-14T15:42:46;24.10;1.00
11617;DHT22;5864;52.998;9.068;2023-05-14T15:45:31;24.20;1.00
11617;DHT22;5864;52.998;9.068;2023-05-14T15:48:19;24.50;1.00
11617;DHT22;5864;52.998;9.068;2023-05-14T15:51:04;24.20;1.00
11617;DHT22;5864;52.998;9.068;2023-05-14T15:53:51;24.40;1.00
11617;DHT22;5864;52.998;9.068;2023-05-14T15:56:37;24.10;1.00
11617;DHT22;5864;52.998;9.068;2023-05-14T15:59:22;23.80;1.00
11617;DHT22;5864;52.998;9.068;2023-05-14T16:02:08;23.20;1.00
11617;DHT22;5864;52.998;9.068;2023-05-14T16:04:55;23.00;1.00
11617;DHT22;5864;52.998;9.068;2023-05-14T16:07:41;22.40;1.00
11617;DHT22;5864;52.998;9.068;2023-05-14T16:10:27;22.00;1.00
11617;DHT22;5864;52.998;9.068;2023-05-14T16:13:12;21.60;1.00
11617;DHT22;5864;52.998;9.068;2023-05-14T16:16:00;21.30;1.00
11617;DHT22;5864;52.998;9.068;2023-05-14T16:18:45;21.20;1.00
11617;DHT22;5864;52.998;9.068;2023-05-14T16:21:35;20.90;1.00
11617;DHT22;5864;52.998;9.068;2023-05-14T16:24:22;21.00;1.00
11617;DHT22;5864;52.998;9.068;2023-05-14T16:27:07;21.10;1.00
11617;DHT22;5864;52.998;9.068;2023-05-14T16:29:53;21.20;1.00
11617;DHT22;5864;52.998;9.068;2023-05-14T16:32:39;21.00;1.00
11617;DHT22;5864;52.998;9.068;2023-05-14T16:35:25;20.80;1.00
11617;DHT22;5864;52.998;9.068;2023-05-14T16:38:12;20.70;1.00
11617;DHT22;5864;52.998;9.068;2023-05-14T16:40:58;20.90;1.00
11617;DHT22;5864;52.998;9.068;2023-05-14T16:46:31;20.90;1.00
11617;DHT22;5864;52.998;9.068;2023-05-14T16:49:17;20.80;1.00
11617;DHT22;5864;52.998;9.068;2023-05-14T16:52:06;20.60;1.00
11617;DHT22;5864;52.998;9.068;2023-05-14T16:54:53;20.50;1.00
11617;DHT22;5864;52.998;9.068;2023-05-14T16:57:38;20.50;1.00
11617;DHT22;5864;52.998;9.068;2023-05-14T17:00:24;20.60;1.00
11617;DHT22;5864;52.998;9.068;2023-05-14T17:03:09;20.60;1.00
11617;DHT22;5864;52.998;9.068;2023-05-14T17:05:55;20.80;1.00
11617;DHT22;5864;52.998;9.068;2023-05-14T17:08:41;20.90;1.00
11617;DHT22;5864;52.998;9.068;2023-05-14T17:11:28;20.90;1.00
11617;DHT22;5864;52.998;9.068;2023-05-14T17:16:59;21.00;1.00
11617;DHT22;5864;52.998;9.068;2023-05-14T17:19:45;21.20;1.00
11617;DHT22;5864;52.998;9.068;2023-05-14T17:22:31;21.30;1.00
11617;DHT22;5864;52.998;9.068;2023-05-14T17:25:16;21.40;1.00
11617;DHT22;5864;52.998;9.068;2023-05-14T17:28:03;21.30;1.00
11617;DHT22;5864;52.998;9.068;2023-05-14T17:30:50;21.30;1.00
11617;DHT22;5864;52.998;9.068;2023-05-14T17:33:35;21.30;1.00
11617;DHT22;5864;52.998;9.068;2023-05-14T17:36:21;21.40;1.00
11617;DHT22;5864;52.998;9.068;2023-05-14T17:39:07;21.30;1.00
11617;DHT22;5864;52.998;9.068;2023-05-14T17:41:52;21.30;1.00
11617;DHT22;5864;52.998;9.068;2023-05-14T17:44:39;21.30;1.00
11617;DHT22;5864;52.998;9.068;2023-05-14T17:47:25;21.20;1.00
11617;DHT22;5864;52.998;9.068;2023-05-14T17:50:10;21.10;1.00
11617;DHT22;5864;52.998;9.068;2023-05-14T17:52:56;21.10;1.00
11617;DHT22;5864;52.998;9.068;2023-05-14T17:55:41;21.10;1.00
11617;DHT22;5864;52.998;9.068;2023-05-14T17:58:27;21.20;1.00
11617;DHT22;5864;52.998;9.068;2023-05-14T18:01:14;21.40;1.00
11617;DHT22;5864;52.998;9.068;2023-05-14T18:04:00;21.30;1.00
11617;DHT22;5864;52.998;9.068;2023-05-14T18:06:45;21.30;1.00
11617;DHT22;5864;52.998;9.068;2023-05-14T18:09:31;21.40;1.00
11617;DHT22;5864;52.998;9.068;2023-05-14T18:12:17;21.40;1.00
11617;DHT22;5864;52.998;9.068;2023-05-14T18:15:03;21.30;1.00
11617;DHT22;5864;52.998;9.068;2023-05-14T18:17:50;21.50;1.00
11617;DHT22;5864;52.998;9.068;2023-05-14T18:20:36;21.60;1.00
11617;DHT22;5864;52.998;9.068;2023-05-14T18:23:22;21.70;1.00
11617;DHT22;5864;52.998;9.068;2023-05-14T18:26:07;21.70;1.00